createdAt,value
2023-05-03T00:00:21.017Z,17.10
2023-05-03T00:02:47.912Z,17.00
2023-05-03T00:05:15.268Z,18.47
2023-05-03T00:07:43.804Z,18.80
2023-05-03T00:10:15.861Z,18.00
2023-05-03T00:12:43.835Z,17.13
2023-05-03T00:15:11.348Z,17.70
2023-05-03T00:17:38.395Z,17.40
2023-05-03T00:20:06.382Z,17.63
2023-05-03T00:22:33.417Z,18.13
2023-05-03T00:25:00.620Z,16.70
2023-05-03T00:27:27.388Z,16.37
2023-05-03T00:29:54.290Z,16.60
2023-05-03T00:32:22.747Z,17.40
2023-05-03T00:34:57.321Z,17.00
2023-05-03T00:37:26.486Z,17.37
2023-05-03T00:39:53.670Z,16.03
2023-05-03T00:42:20.446Z,16.60
2023-05-03T00:44:47.333Z,18.07
2023-05-03T00:47:15.746Z,16.30
2023-05-03T00:49:43.222Z,16.53
2023-05-03T00:52:11.105Z,16.83
2023-05-03T00:54:38.182Z,17.60
2023-05-03T00:57:05.435Z,17.67
2023-05-03T00:59:34.482Z,16.53
2023-05-03T01:02:01.836Z,18.97
2023-05-03T01:04:29.576Z,17.73
2023-05-03T01:07:18.043Z,16.10
2023-05-03T01:10:06.357Z,16.90
2023-05-03T01:12:54.249Z,15.80
2023-05-03T01:15:39.613Z,17.20
2023-05-03T01:18:12.524Z,16.97
2023-05-03T01:20:44.053Z,16.17
2023-05-03T01:23:30.238Z,17.13
2023-05-03T01:25:57.789Z,16.27
2023-05-03T01:28:25.280Z,16.73
2023-05-03T01:30:53.526Z,16.97
2023-05-03T01:33:35.316Z,16.60
2023-05-03T01:36:16.291Z,17.00
2023-05-03T01:38:43.389Z,16.53
2023-05-03T01:41:12.333Z,17.63
2023-05-03T01:43:40.865Z,16.23
2023-05-03T01:46:08.258Z,16.37
2023-05-03T01:48:35.239Z,17.40
2023-05-03T01:51:03.365Z,17.10
2023-05-03T01:53:30.148Z,17.00
2023-05-03T01:55:57.056Z,17.40
2023-05-03T01:58:23.866Z,17.67
2023-05-03T02:00:50.786Z,17.23
2023-05-03T02:03:19.237Z,18.23
2023-05-03T02:05:46.399Z,17.93
2023-05-03T02:08:13.204Z,18.80
2023-05-03T02:10:39.981Z,19.87
2023-05-03T02:13:06.785Z,17.17
2023-05-03T02:15:33.810Z,17.07
2023-05-03T02:18:02.509Z,16.33
2023-05-03T02:20:32.492Z,15.87
2023-05-03T02:22:59.474Z,19.07
2023-05-03T02:25:27.596Z,18.43
2023-05-03T02:27:54.564Z,19.50
2023-05-03T02:30:21.569Z,18.70
2023-05-03T02:32:48.526Z,19.73
2023-05-03T02:35:17.955Z,18.83
2023-05-03T02:37:45.315Z,19.43
2023-05-03T02:40:12.825Z,17.57
2023-05-03T02:42:41.723Z,19.07
2023-05-03T02:45:09.482Z,18.83
2023-05-03T02:47:36.336Z,17.37
2023-05-03T02:50:03.329Z,19.77
2023-05-03T02:52:33.988Z,20.20
2023-05-03T02:55:01.193Z,19.83
2023-05-03T02:57:28.124Z,19.23
2023-05-03T02:59:56.346Z,18.90
2023-05-03T03:02:23.436Z,19.40
2023-05-03T03:04:50.438Z,18.97
2023-05-03T03:07:17.557Z,21.93
2023-05-03T03:09:44.411Z,22.27
2023-05-03T03:12:11.739Z,22.00
2023-05-03T03:14:38.620Z,19.33
2023-05-03T03:17:08.875Z,18.07
2023-05-03T03:19:35.822Z,17.37
2023-05-03T03:22:02.704Z,16.73
2023-05-03T03:24:31.774Z,17.53
2023-05-03T03:26:58.757Z,17.47
2023-05-03T03:29:26.336Z,17.80
2023-05-03T03:31:53.458Z,20.93
2023-05-03T03:34:20.560Z,16.43
2023-05-03T03:36:47.523Z,15.90
2023-05-03T03:39:15.386Z,15.20
2023-05-03T03:41:43.944Z,16.50
2023-05-03T03:44:11.477Z,15.77
2023-05-03T03:46:38.666Z,16.67
2023-05-03T03:49:05.502Z,16.80
2023-05-03T03:51:32.352Z,17.03
2023-05-03T03:54:00.210Z,16.87
2023-05-03T03:56:32.256Z,15.80
2023-05-03T03:59:00.077Z,16.63
2023-05-03T04:01:26.988Z,16.10
2023-05-03T04:03:55.068Z,16.27
2023-05-03T04:06:23.541Z,16.80
2023-05-03T04:08:50.630Z,18.30
2023-05-03T04:11:18.137Z,17.03
2023-05-03T04:13:53.055Z,17.63
2023-05-03T04:16:20.170Z,19.37
2023-05-03T04:18:47.402Z,20.93
2023-05-03T04:21:14.334Z,17.20
2023-05-03T04:23:42.578Z,17.57
2023-05-03T04:26:19.973Z,18.47
2023-05-03T04:28:55.295Z,18.13
2023-05-03T04:31:23.041Z,19.23
2023-05-03T04:33:53.236Z,17.00
2023-05-03T04:36:25.776Z,17.57
2023-05-03T04:38:54.297Z,18.67
2023-05-03T04:41:21.083Z,16.83
2023-05-03T04:43:48.205Z,15.53
2023-05-03T04:46:16.675Z,17.70
2023-05-03T04:48:45.721Z,17.00
2023-05-03T04:51:12.546Z,17.90
2023-05-03T04:53:42.109Z,19.37
2023-05-03T04:56:13.920Z,16.63
2023-05-03T04:58:41.347Z,16.90
2023-05-03T05:01:08.650Z,17.27
2023-05-03T05:03:35.860Z,19.93
2023-05-03T05:06:09.914Z,18.43
2023-05-03T05:08:39.084Z,17.17
2023-05-03T05:11:08.913Z,17.17
2023-05-03T05:13:36.428Z,19.03
2023-05-03T05:16:03.874Z,20.17
2023-05-03T05:18:31.227Z,21.43
2023-05-03T05:21:00.616Z,20.03
2023-05-03T05:23:27.867Z,20.23
2023-05-03T05:25:54.747Z,22.73
2023-05-03T05:28:21.679Z,22.70
2023-05-03T05:30:48.671Z,23.23
2023-05-03T05:33:16.731Z,23.47
2023-05-03T05:35:48.700Z,24.77
2023-05-03T05:38:17.593Z,21.07
2023-05-03T05:40:44.981Z,22.90
2023-05-03T05:43:11.959Z,24.43
2023-05-03T05:45:41.746Z,23.03
2023-05-03T05:48:09.137Z,22.53
2023-05-03T05:50:36.541Z,24.00
2023-05-03T05:53:09.689Z,25.67
2023-05-03T05:55:40.904Z,22.13
2023-05-03T05:58:08.425Z,24.30
2023-05-03T06:00:41.041Z,23.73
2023-05-03T06:03:08.023Z,23.97
2023-05-03T06:05:35.092Z,23.13
2023-05-03T06:08:02.222Z,23.10
2023-05-03T06:10:29.071Z,23.53
2023-05-03T06:12:57.367Z,23.90
2023-05-03T06:15:26.288Z,22.53
2023-05-03T06:17:53.713Z,21.10
2023-05-03T06:20:20.819Z,20.80
2023-05-03T06:22:49.208Z,21.23
2023-05-03T06:25:17.812Z,21.10
2023-05-03T06:27:47.984Z,20.77
2023-05-03T06:30:15.104Z,19.97
2023-05-03T06:32:43.426Z,21.63
2023-05-03T06:35:12.579Z,21.63
2023-05-03T06:37:40.579Z,18.77
2023-05-03T06:40:08.029Z,18.77
2023-05-03T06:42:36.741Z,18.03
2023-05-03T06:45:08.490Z,16.77
2023-05-03T06:47:37.918Z,18.30
2023-05-03T06:50:05.610Z,18.30
2023-05-03T06:52:32.855Z,19.57
2023-05-03T06:54:59.654Z,17.97
2023-05-03T06:57:28.680Z,17.43
2023-05-03T06:59:56.036Z,18.43
2023-05-03T07:02:23.174Z,19.57
2023-05-03T07:04:50.616Z,19.13
2023-05-03T07:07:17.559Z,20.23
2023-05-03T07:09:44.425Z,20.43
2023-05-03T07:12:12.025Z,22.73
2023-05-03T07:14:40.247Z,22.10
2023-05-03T07:17:07.423Z,20.57
2023-05-03T07:19:34.493Z,20.97
2023-05-03T07:22:03.329Z,20.57
2023-05-03T07:24:30.181Z,19.77
2023-05-03T07:26:58.038Z,20.40
2023-05-03T07:29:24.785Z,19.57
2023-05-03T07:31:53.476Z,19.03
2023-05-03T07:34:21.180Z,19.80
2023-05-03T07:36:48.048Z,20.47
2023-05-03T07:39:14.882Z,21.37
2023-05-03T07:41:41.670Z,19.50
2023-05-03T07:44:08.728Z,18.87
2023-05-03T07:46:36.029Z,19.37
2023-05-03T07:49:04.546Z,18.03
2023-05-03T07:51:38.504Z,20.30
2023-05-03T07:54:05.907Z,18.77
2023-05-03T07:56:32.984Z,16.87
2023-05-03T07:59:09.124Z,18.37
2023-05-03T08:01:36.918Z,17.33
2023-05-03T08:04:04.743Z,17.37
2023-05-03T08:06:32.855Z,17.13
2023-05-03T08:08:59.827Z,18.03
2023-05-03T08:11:29.924Z,17.60
2023-05-03T08:13:56.776Z,18.23
2023-05-03T08:16:23.785Z,17.73
2023-05-03T08:18:50.676Z,17.03
2023-05-03T08:21:17.655Z,16.93
2023-05-03T08:23:45.063Z,16.80
2023-05-03T08:26:14.265Z,17.80
2023-05-03T08:28:41.578Z,17.47
2023-05-03T08:31:08.903Z,17.30
2023-05-03T08:33:36.009Z,16.50
2023-05-03T08:36:03.340Z,15.70
2023-05-03T08:38:30.213Z,15.80
2023-05-03T08:40:59.638Z,16.87
2023-05-03T08:43:28.737Z,17.23
2023-05-03T08:45:55.711Z,16.40
2023-05-03T08:48:23.239Z,17.43
2023-05-03T08:50:52.784Z,18.97
2023-05-03T08:53:19.608Z,16.30
2023-05-03T08:55:46.458Z,17.70
2023-05-03T08:58:13.759Z,16.07
2023-05-03T09:00:44.728Z,14.90
2023-05-03T09:03:12.363Z,16.00
2023-05-03T09:05:40.557Z,14.73
2023-05-03T09:08:09.939Z,14.50
2023-05-03T09:10:42.087Z,14.53
2023-05-03T09:13:10.251Z,14.13
2023-05-03T09:15:37.508Z,14.13
2023-05-03T09:18:11.852Z,13.93
2023-05-03T09:20:40.889Z,14.17
2023-05-03T09:23:09.585Z,13.73
2023-05-03T09:25:48.150Z,14.27
2023-05-03T09:28:17.069Z,14.43
2023-05-03T09:30:44.713Z,14.07
2023-05-03T09:33:11.873Z,13.50
2023-05-03T09:35:39.201Z,14.67
2023-05-03T09:38:06.249Z,14.40
2023-05-03T09:40:33.270Z,15.10
2023-05-03T09:43:11.515Z,13.67
2023-05-03T09:45:39.124Z,14.77
2023-05-03T09:48:07.366Z,13.53
2023-05-03T09:50:36.392Z,14.97
2023-05-03T09:53:05.478Z,14.00
2023-05-03T09:55:41.276Z,14.70
2023-05-03T09:58:08.384Z,14.10
2023-05-03T10:00:40.393Z,14.30
2023-05-03T10:03:12.349Z,14.10
2023-05-03T10:05:46.099Z,14.83
2023-05-03T10:08:34.937Z,14.97
2023-05-03T10:11:04.215Z,15.43
2023-05-03T10:13:31.931Z,14.53
2023-05-03T10:16:17.751Z,15.23
2023-05-03T10:18:53.344Z,15.17
2023-05-03T10:21:42.315Z,15.50
2023-05-03T10:24:16.872Z,15.80
2023-05-03T10:26:47.937Z,15.03
2023-05-03T10:29:34.430Z,15.20
2023-05-03T10:32:05.228Z,15.33
2023-05-03T10:34:33.886Z,14.40
2023-05-03T10:37:09.659Z,15.13
2023-05-03T10:39:37.148Z,15.30
2023-05-03T10:42:08.022Z,15.97
2023-05-03T10:44:39.892Z,15.70
2023-05-03T10:47:14.727Z,15.30
2023-05-03T10:49:41.584Z,15.40
2023-05-03T10:52:36.335Z,15.50
2023-05-03T10:55:10.018Z,14.87
2023-05-03T10:57:40.217Z,16.10
2023-05-03T11:00:33.709Z,15.30
2023-05-03T11:03:18.856Z,15.07
2023-05-03T11:05:48.403Z,14.70
2023-05-03T11:08:18.445Z,14.70
2023-05-03T11:10:59.762Z,14.60
2023-05-03T11:13:27.405Z,15.30
2023-05-03T11:15:56.096Z,15.73
2023-05-03T11:18:26.154Z,14.93
2023-05-03T11:20:53.888Z,14.37
2023-05-03T11:23:26.924Z,14.90
2023-05-03T11:25:53.898Z,14.50
2023-05-03T11:28:20.915Z,13.60
2023-05-03T11:30:47.899Z,14.50
2023-05-03T11:33:14.757Z,14.67
2023-05-03T11:35:42.254Z,14.53
2023-05-03T11:38:10.200Z,14.47
2023-05-03T11:40:39.232Z,14.77
2023-05-03T11:43:09.547Z,14.63
2023-05-03T11:45:44.066Z,14.57
2023-05-03T11:48:12.588Z,14.23
2023-05-03T11:50:51.685Z,13.97
2023-05-03T11:53:19.299Z,14.47
2023-05-03T11:55:48.178Z,14.00
2023-05-03T11:58:20.747Z,14.03
2023-05-03T12:00:52.016Z,14.27
2023-05-03T12:03:27.719Z,14.27
2023-05-03T12:05:58.707Z,14.47
2023-05-03T12:08:31.150Z,14.70
2023-05-03T12:11:02.574Z,14.10
2023-05-03T12:13:38.716Z,14.33
2023-05-03T12:16:13.821Z,15.13
2023-05-03T12:19:03.115Z,14.90
2023-05-03T12:21:55.420Z,14.90
2023-05-03T12:24:34.448Z,14.50
2023-05-03T12:27:02.599Z,14.73
2023-05-03T12:29:34.910Z,14.77
2023-05-03T12:32:03.851Z,14.83
2023-05-03T12:34:35.746Z,15.17
2023-05-03T12:37:05.381Z,14.93
2023-05-03T12:39:34.061Z,14.63
2023-05-03T12:44:35.025Z,15.90
2023-05-03T12:47:03.777Z,15.37
2023-05-03T12:49:31.492Z,15.27
2023-05-03T12:54:33.728Z,16.33
2023-05-03T12:57:08.373Z,15.47
2023-05-03T12:59:41.865Z,15.90
2023-05-03T13:07:15.044Z,15.53
2023-05-03T13:12:22.219Z,15.67
2023-05-03T13:14:51.161Z,15.40
2023-05-03T13:17:20.544Z,14.60
2023-05-03T13:19:47.862Z,15.33
2023-05-03T13:22:15.700Z,15.43
2023-05-03T13:24:44.608Z,15.67
2023-05-03T13:27:11.701Z,15.27
2023-05-03T13:29:39.580Z,16.40
2023-05-03T13:32:08.139Z,16.00
2023-05-03T13:34:36.252Z,15.87
2023-05-03T13:37:04.607Z,16.23
2023-05-03T13:39:32.309Z,15.63
2023-05-03T13:41:59.209Z,15.60
2023-05-03T13:44:26.317Z,15.97
2023-05-03T13:46:53.506Z,16.17
2023-05-03T13:49:20.736Z,15.80
2023-05-03T13:51:48.003Z,15.77
2023-05-03T13:54:14.949Z,16.00
2023-05-03T13:56:43.118Z,15.83
2023-05-03T13:59:13.865Z,15.93
2023-05-03T14:01:41.211Z,16.50
2023-05-03T14:04:08.410Z,16.30
2023-05-03T14:06:37.687Z,16.30
2023-05-03T14:09:06.532Z,16.53
2023-05-03T14:11:33.628Z,17.17
2023-05-03T14:14:00.963Z,16.47
2023-05-03T14:16:39.926Z,16.30
2023-05-03T14:19:10.433Z,16.77
2023-05-03T14:21:38.147Z,16.80
2023-05-03T14:24:06.031Z,17.10
2023-05-03T14:26:34.047Z,16.03
2023-05-03T14:29:01.051Z,15.93
2023-05-03T14:31:28.021Z,16.80
2023-05-03T14:33:55.224Z,17.10
2023-05-03T14:36:22.342Z,16.40
2023-05-03T14:38:49.206Z,16.97
2023-05-03T14:41:16.256Z,16.93
2023-05-03T14:43:43.145Z,16.43
2023-05-03T14:46:10.352Z,17.13
2023-05-03T14:48:38.136Z,17.03
2023-05-03T14:51:05.664Z,17.07
2023-05-03T14:53:32.642Z,16.70
2023-05-03T14:55:59.841Z,16.80
2023-05-03T14:58:27.464Z,16.53
2023-05-03T15:00:54.354Z,16.90
2023-05-03T15:03:21.190Z,17.37
2023-05-03T15:05:49.621Z,17.00
2023-05-03T15:08:19.358Z,17.77
2023-05-03T15:10:46.560Z,17.40
2023-05-03T15:13:14.386Z,16.77
2023-05-03T15:15:45.825Z,16.73
2023-05-03T15:18:14.527Z,17.30
2023-05-03T15:20:41.561Z,17.53
2023-05-03T15:23:08.450Z,17.47
2023-05-03T15:25:35.601Z,17.40
2023-05-03T15:28:04.590Z,17.23
2023-05-03T15:30:32.800Z,16.83
2023-05-03T15:33:01.037Z,17.07
2023-05-03T15:35:28.220Z,16.93
2023-05-03T15:37:55.048Z,16.93
2023-05-03T15:40:23.881Z,16.60
2023-05-03T15:42:51.843Z,17.37
2023-05-03T15:45:19.238Z,17.03
2023-05-03T15:47:46.401Z,16.90
2023-05-03T15:50:13.928Z,17.10
2023-05-03T15:52:42.147Z,17.50
2023-05-03T15:55:09.908Z,16.87
2023-05-03T15:57:37.217Z,17.20
2023-05-03T16:00:25.920Z,17.07
2023-05-03T16:02:53.084Z,16.47
2023-05-03T16:05:20.239Z,17.57
2023-05-03T16:07:47.146Z,17.40
2023-05-03T16:10:15.010Z,17.20
2023-05-03T16:12:42.995Z,17.30
2023-05-03T16:15:10.856Z,17.30
2023-05-03T16:17:37.772Z,17.50
2023-05-03T16:20:05.675Z,17.40
2023-05-03T16:22:32.686Z,17.47
2023-05-03T16:24:59.555Z,17.43
2023-05-03T16:27:26.417Z,17.57
2023-05-03T16:29:54.216Z,16.67
2023-05-03T16:32:21.001Z,18.00
2023-05-03T16:34:49.094Z,16.67
2023-05-03T16:37:17.544Z,17.10
2023-05-03T16:39:44.594Z,17.57
2023-05-03T16:42:12.024Z,16.80
2023-05-03T16:44:39.278Z,16.90
2023-05-03T16:47:06.457Z,17.20
2023-05-03T16:49:34.454Z,16.73
2023-05-03T16:52:01.906Z,17.60
2023-05-03T16:54:29.271Z,17.57
2023-05-03T16:56:56.200Z,17.17
2023-05-03T16:59:23.452Z,17.20
2023-05-03T17:01:50.813Z,17.67
2023-05-03T17:04:17.648Z,17.57
2023-05-03T17:06:44.574Z,17.60
2023-05-03T17:09:12.343Z,17.57
2023-05-03T17:11:39.338Z,17.37
2023-05-03T17:14:06.512Z,17.60
2023-05-03T17:16:33.377Z,18.00
2023-05-03T17:19:00.966Z,17.40
2023-05-03T17:21:27.798Z,17.50
2023-05-03T17:23:54.585Z,17.97
2023-05-03T17:26:23.492Z,18.17
2023-05-03T17:28:50.334Z,17.70
2023-05-03T17:31:17.375Z,17.60
2023-05-03T17:33:44.237Z,16.80
2023-05-03T17:36:11.323Z,17.03
2023-05-03T17:38:38.244Z,17.20
2023-05-03T17:41:09.647Z,17.77
2023-05-03T17:43:37.478Z,17.23
2023-05-03T17:46:14.582Z,17.40
2023-05-03T17:48:48.292Z,17.23
2023-05-03T17:51:15.250Z,16.83
2023-05-03T17:53:42.687Z,16.73
2023-05-03T17:56:17.472Z,17.50
2023-05-03T17:58:45.274Z,16.90
2023-05-03T18:01:13.346Z,17.87
2023-05-03T18:03:41.813Z,16.90
2023-05-03T18:06:11.307Z,18.77
2023-05-03T18:08:38.214Z,18.27
2023-05-03T18:11:05.312Z,17.73
2023-05-03T18:13:34.947Z,18.60
2023-05-03T18:16:06.970Z,18.13
2023-05-03T18:18:34.002Z,18.20
2023-05-03T18:21:02.252Z,18.40
2023-05-03T18:23:30.253Z,18.17
2023-05-03T18:25:57.300Z,18.20
2023-05-03T18:28:24.412Z,17.83
2023-05-03T18:30:52.900Z,18.73
2023-05-03T18:33:20.070Z,17.87
2023-05-03T18:35:51.344Z,18.23
2023-05-03T18:38:20.105Z,18.37
2023-05-03T18:40:48.156Z,18.00
2023-05-03T18:43:15.204Z,18.23
2023-05-03T18:45:42.098Z,18.97
2023-05-03T18:48:08.985Z,19.77
2023-05-03T18:50:38.214Z,19.57
2023-05-03T18:53:06.121Z,18.60
2023-05-03T18:55:32.981Z,18.80
2023-05-03T18:58:00.617Z,20.10
2023-05-03T19:00:27.869Z,18.67
2023-05-03T19:02:54.879Z,18.97
2023-05-03T19:05:21.707Z,19.20
2023-05-03T19:07:48.811Z,18.73
2023-05-03T19:10:16.239Z,17.93
2023-05-03T19:12:44.354Z,17.63
2023-05-03T19:15:12.002Z,18.10
2023-05-03T19:17:41.778Z,19.10
2023-05-03T19:20:10.309Z,19.57
2023-05-03T19:22:37.746Z,19.77
2023-05-03T19:25:05.623Z,19.07
2023-05-03T19:27:32.970Z,20.07
2023-05-03T19:29:59.816Z,19.67
2023-05-03T19:32:26.752Z,19.77
2023-05-03T19:34:53.601Z,20.07
2023-05-03T19:37:20.455Z,21.00
2023-05-03T19:39:47.339Z,20.17
2023-05-03T19:42:14.147Z,19.67
2023-05-03T19:44:41.015Z,18.97
2023-05-03T19:47:08.555Z,21.33
2023-05-03T19:49:35.519Z,20.13
2023-05-03T19:52:04.381Z,19.97
2023-05-03T19:54:32.956Z,19.90
2023-05-03T19:57:07.181Z,20.53
2023-05-03T19:59:34.278Z,20.40
2023-05-03T20:02:01.241Z,21.40
2023-05-03T20:04:28.283Z,20.27
2023-05-03T20:06:55.148Z,20.73
2023-05-03T20:09:23.432Z,19.77
2023-05-03T20:11:51.452Z,18.83
2023-05-03T20:14:18.605Z,19.87
2023-05-03T20:16:45.772Z,20.27
2023-05-03T20:19:13.191Z,20.00
2023-05-03T20:21:40.058Z,20.27
2023-05-03T20:24:10.678Z,20.30
2023-05-03T20:26:38.355Z,20.70
2023-05-03T20:29:05.617Z,24.10
2023-05-03T20:31:32.888Z,21.07
2023-05-03T20:34:00.280Z,20.33
2023-05-03T20:36:28.122Z,20.93
2023-05-03T20:38:55.717Z,20.43
2023-05-03T20:41:23.147Z,19.80
2023-05-03T20:43:52.058Z,20.73
2023-05-03T20:46:18.923Z,19.77
2023-05-03T20:48:45.906Z,19.80
2023-05-03T20:51:12.978Z,19.47
2023-05-03T20:53:39.763Z,19.23
2023-05-03T20:56:07.779Z,20.83
2023-05-03T20:58:35.273Z,19.70
2023-05-03T21:01:06.560Z,20.23
2023-05-03T21:03:34.539Z,20.20
2023-05-03T21:06:01.632Z,19.57
2023-05-03T21:08:28.510Z,20.37
2023-05-03T21:10:55.407Z,19.07
2023-05-03T21:13:22.230Z,21.37
2023-05-03T21:15:50.668Z,20.30
2023-05-03T21:18:18.902Z,20.23
2023-05-03T21:20:46.143Z,19.97
2023-05-03T21:23:13.379Z,20.23
2023-05-03T21:25:40.239Z,20.97
2023-05-03T21:28:07.102Z,20.50
2023-05-03T21:30:34.015Z,20.97
2023-05-03T21:33:00.925Z,20.30
2023-05-03T21:35:28.258Z,21.30
2023-05-03T21:37:55.036Z,21.17
2023-05-03T21:40:22.210Z,20.10
2023-05-03T21:42:52.155Z,20.00
2023-05-03T21:45:19.282Z,20.53
2023-05-03T21:47:46.447Z,21.53
2023-05-03T21:50:13.889Z,21.00
2023-05-03T21:52:41.172Z,20.97
2023-05-03T21:55:08.822Z,21.03
2023-05-03T21:57:36.732Z,20.70
2023-05-03T22:00:05.731Z,21.47
2023-05-03T22:02:35.442Z,21.40
2023-05-03T22:05:02.703Z,21.63
2023-05-03T22:07:29.647Z,21.27
2023-05-03T22:10:02.560Z,21.87
2023-05-03T22:12:29.521Z,21.73
2023-05-03T22:14:56.516Z,20.77
2023-05-03T22:17:23.464Z,21.43
2023-05-03T22:19:50.503Z,21.60
2023-05-03T22:22:17.594Z,20.97
2023-05-03T22:24:44.475Z,21.33
2023-05-03T22:27:11.240Z,21.20
2023-05-03T22:29:38.072Z,21.67
2023-05-03T22:32:05.521Z,21.67
2023-05-03T22:34:32.547Z,22.03
2023-05-03T22:36:59.378Z,20.73
2023-05-03T22:39:26.724Z,21.40
2023-05-03T22:41:53.567Z,21.60
2023-05-03T22:44:20.355Z,22.23
2023-05-03T22:46:47.111Z,21.20
2023-05-03T22:49:13.842Z,21.57
2023-05-03T22:51:40.973Z,22.40
2023-05-03T22:54:07.741Z,21.33
2023-05-03T22:56:34.691Z,21.40
2023-05-03T22:59:01.496Z,22.00
2023-05-03T23:01:28.477Z,22.90
2023-05-03T23:03:56.763Z,21.13
2023-05-03T23:06:23.795Z,22.10
2023-05-03T23:08:50.678Z,21.53
2023-05-03T23:11:17.838Z,21.67
2023-05-03T23:13:44.965Z,22.20
2023-05-03T23:16:11.778Z,22.43
2023-05-03T23:18:38.676Z,22.60
2023-05-03T23:21:05.527Z,22.17
2023-05-03T23:23:32.408Z,22.80
2023-05-03T23:25:59.197Z,23.40
2023-05-03T23:28:26.512Z,22.57
2023-05-03T23:30:54.067Z,23.27
2023-05-03T23:33:21.320Z,23.03
2023-05-03T23:35:48.832Z,22.37
2023-05-03T23:38:15.785Z,23.10
2023-05-03T23:40:42.654Z,23.40
2023-05-03T23:43:09.423Z,22.57
2023-05-03T23:45:36.160Z,22.93
2023-05-03T23:48:02.932Z,22.10
2023-05-03T23:50:29.795Z,23.07
2023-05-03T23:52:57.590Z,22.80
2023-05-03T23:55:25.011Z,21.87
2023-05-03T23:57:51.749Z,24.60
